createdAt,value
2019-05-16T00:00:33.042Z,10.25
2019-05-16T00:01:38.445Z,11.12
2019-05-16T00:02:42.036Z,9.05
2019-05-16T00:03:48.715Z,9.38
2019-05-16T00:04:51.225Z,12.88
2019-05-16T00:05:55.205Z,21.15
2019-05-16T00:06:58.713Z,15.20
2019-05-16T00:08:02.778Z,10.38
2019-05-16T00:09:07.995Z,11.22
2019-05-16T00:10:12.161Z,12.58
2019-05-16T00:11:17.788Z,12.10
2019-05-16T00:12:21.534Z,9.93
2019-05-16T00:13:25.033Z,14.15
2019-05-16T00:14:29.047Z,14.30
2019-05-16T00:15:32.546Z,13.72
2019-05-16T00:16:37.994Z,12.07
2019-05-16T00:17:41.636Z,15.20
2019-05-16T00:18:47.767Z,14.05
2019-05-16T00:19:50.869Z,12.55
2019-05-16T00:20:54.852Z,14.47
2019-05-16T00:21:58.349Z,11.12
2019-05-16T00:23:02.350Z,13.25
2019-05-16T00:24:08.074Z,12.82
2019-05-16T00:25:11.833Z,13.95
2019-05-16T00:26:15.257Z,14.13
2019-05-16T00:27:19.246Z,13.90
2019-05-16T00:28:22.751Z,18.30
2019-05-16T00:29:27.748Z,12.63
2019-05-16T00:30:31.254Z,20.97
2019-05-16T00:31:35.274Z,18.25
2019-05-16T00:32:39.287Z,16.52
2019-05-16T00:33:43.237Z,12.20
2019-05-16T00:34:47.770Z,23.07
2019-05-16T00:36:02.170Z,12.63
2019-05-16T00:36:58.190Z,13.88
2019-05-16T00:38:02.263Z,13.13
2019-05-16T00:39:08.367Z,19.70
2019-05-16T00:40:12.401Z,9.88
2019-05-16T00:41:17.907Z,35.78
2019-05-16T00:42:21.578Z,13.50
2019-05-16T00:43:25.087Z,13.68
2019-05-16T00:44:29.144Z,13.38
2019-05-16T00:45:32.669Z,14.33
2019-05-16T00:46:38.518Z,17.77
2019-05-16T00:47:41.949Z,13.85
2019-05-16T00:48:46.071Z,13.58
2019-05-16T00:49:49.645Z,13.58
2019-05-16T00:50:53.731Z,15.10
2019-05-16T00:51:58.444Z,15.45
2019-05-16T00:53:02.578Z,14.80
2019-05-16T00:54:08.081Z,12.73
2019-05-16T00:55:11.936Z,13.72
2019-05-16T00:56:15.656Z,13.38
2019-05-16T00:57:20.314Z,12.53
2019-05-16T00:58:23.904Z,14.93
2019-05-16T00:59:28.832Z,18.52
2019-05-16T01:00:49.415Z,12.60
2019-05-16T01:01:52.022Z,15.55
2019-05-16T01:02:57.742Z,14.73
2019-05-16T01:04:01.164Z,13.78
2019-05-16T01:05:08.499Z,12.60
2019-05-16T01:06:18.616Z,13.78
2019-05-16T01:07:18.682Z,14.58
2019-05-16T01:08:22.743Z,14.00
2019-05-16T01:09:28.188Z,12.70
2019-05-16T01:10:31.966Z,15.25
2019-05-16T01:11:35.488Z,17.35
2019-05-16T01:12:39.512Z,19.32
2019-05-16T01:13:43.007Z,20.10
2019-05-16T01:14:47.818Z,17.32
2019-05-16T01:15:51.351Z,19.62
2019-05-16T01:16:55.383Z,16.87
2019-05-16T01:17:58.952Z,15.18
2019-05-16T01:19:03.119Z,14.55
2019-05-16T01:20:08.566Z,17.42
2019-05-16T01:21:12.755Z,17.20
2019-05-16T01:22:18.551Z,13.60
2019-05-16T01:23:22.017Z,16.97
2019-05-16T01:24:25.509Z,21.20
2019-05-16T01:25:29.487Z,18.77
2019-05-16T01:26:32.943Z,22.05
2019-05-16T01:27:38.616Z,19.77
2019-05-16T01:28:42.336Z,15.88
2019-05-16T01:29:47.707Z,15.88
2019-05-16T01:30:51.377Z,15.20
2019-05-16T01:31:55.428Z,15.98
2019-05-16T01:32:58.892Z,13.50
2019-05-16T01:34:02.910Z,19.20
2019-05-16T01:35:08.362Z,15.72
2019-05-16T01:36:12.486Z,14.75
2019-05-16T01:37:15.913Z,13.75
2019-05-16T01:38:20.026Z,20.32
2019-05-16T01:39:23.524Z,15.38
2019-05-16T01:40:28.115Z,18.80
2019-05-16T01:41:31.523Z,14.28
2019-05-16T01:42:35.567Z,16.02
2019-05-16T01:43:39.197Z,15.40
2019-05-16T01:44:42.917Z,15.68
2019-05-16T01:45:48.486Z,12.88
2019-05-16T01:46:52.203Z,14.85
2019-05-16T01:47:55.635Z,14.40
2019-05-16T01:48:59.657Z,14.78
2019-05-16T01:50:03.833Z,21.07
2019-05-16T01:51:07.995Z,13.93
2019-05-16T01:52:11.453Z,13.90
2019-05-16T01:53:17.659Z,16.17
2019-05-16T01:54:20.704Z,17.48
2019-05-16T01:55:24.832Z,13.88
2019-05-16T01:56:28.271Z,17.45
2019-05-16T01:57:32.268Z,18.07
2019-05-16T01:58:38.123Z,25.43
2019-05-16T01:59:41.542Z,19.60
2019-05-16T02:00:52.368Z,14.63
2019-05-16T02:01:50.880Z,15.10
2019-05-16T02:02:54.384Z,16.93
2019-05-16T02:03:58.786Z,17.92
2019-05-16T02:05:02.323Z,18.23
2019-05-16T02:06:08.677Z,15.35
2019-05-16T02:07:11.710Z,15.98
2019-05-16T02:08:18.010Z,16.85
2019-05-16T02:09:21.488Z,14.78
2019-05-16T02:10:25.643Z,19.10
2019-05-16T02:11:29.083Z,16.12
2019-05-16T02:12:33.068Z,14.93
2019-05-16T02:13:38.900Z,16.00
2019-05-16T02:14:42.343Z,17.25
2019-05-16T02:15:45.874Z,15.63
2019-05-16T02:16:49.863Z,13.68
2019-05-16T02:17:53.305Z,14.25
2019-05-16T02:18:58.895Z,20.77
2019-05-16T02:20:02.419Z,15.68
2019-05-16T02:21:07.859Z,12.53
2019-05-16T02:22:11.489Z,13.70
2019-05-16T02:23:15.543Z,15.43
2019-05-16T02:24:19.063Z,13.08
2019-05-16T02:25:22.974Z,14.07
2019-05-16T02:26:28.315Z,13.35
2019-05-16T02:27:32.353Z,13.83
2019-05-16T02:28:39.995Z,16.02
2019-05-16T02:29:41.587Z,17.77
2019-05-16T02:30:45.050Z,14.43
2019-05-16T02:31:51.408Z,16.55
2019-05-16T02:32:54.195Z,15.35
2019-05-16T02:34:01.161Z,19.37
2019-05-16T02:35:03.694Z,16.10
2019-05-16T02:36:10.713Z,13.50
2019-05-16T02:37:24.629Z,14.33
2019-05-16T02:38:21.177Z,14.10
2019-05-16T02:39:24.040Z,22.05
2019-05-16T02:40:31.012Z,15.10
2019-05-16T02:41:33.681Z,16.80
2019-05-16T02:42:41.518Z,15.65
2019-05-16T02:43:43.347Z,14.47
2019-05-16T02:44:47.410Z,14.47
2019-05-16T02:45:51.958Z,15.58
2019-05-16T02:46:56.248Z,14.55
2019-05-16T02:48:01.318Z,16.85
2019-05-16T02:49:05.637Z,19.12
2019-05-16T02:50:12.242Z,19.40
2019-05-16T02:51:15.026Z,14.58
2019-05-16T02:52:21.561Z,16.48
2019-05-16T02:53:24.195Z,15.90
2019-05-16T02:54:27.710Z,16.55
2019-05-16T02:55:31.785Z,15.25
2019-05-16T02:56:35.243Z,17.92
2019-05-16T02:57:41.539Z,16.37
2019-05-16T02:58:45.171Z,14.68
2019-05-16T02:59:51.005Z,16.35
2019-05-16T03:00:54.632Z,14.45
2019-05-16T03:02:00.946Z,18.50
2019-05-16T03:03:05.152Z,16.07
2019-05-16T03:04:11.019Z,14.47
2019-05-16T03:05:14.658Z,19.57
2019-05-16T03:06:21.060Z,16.42
2019-05-16T03:07:37.873Z,18.77
2019-05-16T03:08:32.321Z,15.80
2019-05-16T03:09:36.235Z,17.00
2019-05-16T03:10:41.235Z,16.60
2019-05-16T03:11:46.018Z,18.32
2019-05-16T03:12:52.615Z,14.93
2019-05-16T03:13:56.980Z,17.15
2019-05-16T03:15:02.617Z,20.32
2019-05-16T03:16:11.792Z,16.80
2019-05-16T03:17:21.217Z,20.08
2019-05-16T03:18:24.183Z,13.60
2019-05-16T03:19:31.140Z,18.30
2019-05-16T03:20:34.710Z,14.65
2019-05-16T03:21:41.757Z,17.98
2019-05-16T03:22:51.720Z,15.18
2019-05-16T03:23:53.948Z,20.37
2019-05-16T03:25:00.660Z,16.62
2019-05-16T03:26:03.160Z,17.48
2019-05-16T03:27:06.596Z,16.40
2019-05-16T03:28:11.274Z,16.05
2019-05-16T03:29:14.815Z,15.10
2019-05-16T03:30:23.845Z,23.07
2019-05-16T03:31:25.256Z,14.40
2019-05-16T03:32:33.972Z,16.82
2019-05-16T03:33:41.616Z,14.85
2019-05-16T03:34:43.883Z,22.93
2019-05-16T03:35:54.472Z,16.55
2019-05-16T03:36:55.193Z,14.60
2019-05-16T03:38:01.421Z,14.10
2019-05-16T03:39:05.767Z,16.30
2019-05-16T03:40:11.066Z,16.77
2019-05-16T03:41:15.146Z,13.53
2019-05-16T03:42:20.520Z,14.58
2019-05-16T03:43:24.359Z,14.60
2019-05-16T03:44:31.475Z,14.05
2019-05-16T03:45:33.596Z,17.60
2019-05-16T03:46:37.030Z,16.70
2019-05-16T03:47:42.684Z,15.32
2019-05-16T03:48:46.500Z,15.83
2019-05-16T03:49:51.718Z,16.27
2019-05-16T03:50:55.350Z,17.75
2019-05-16T03:52:01.584Z,16.65
2019-05-16T03:53:04.562Z,16.35
2019-05-16T03:54:12.060Z,17.30
2019-05-16T03:55:13.929Z,17.10
2019-05-16T03:56:17.935Z,19.23
2019-05-16T03:57:21.466Z,20.72
2019-05-16T03:58:25.523Z,16.62
2019-05-16T03:59:31.529Z,17.25
2019-05-16T04:00:52.356Z,18.32
2019-05-16T04:01:55.082Z,21.12
2019-05-16T04:03:01.306Z,19.80
2019-05-16T04:04:04.301Z,21.65
2019-05-16T04:05:11.096Z,21.80
2019-05-16T04:06:13.539Z,21.15
2019-05-16T04:07:17.530Z,19.35
2019-05-16T04:08:24.825Z,20.52
2019-05-16T04:09:26.839Z,18.73
2019-05-16T04:10:30.989Z,22.37
2019-05-16T04:11:35.054Z,22.17
2019-05-16T04:12:41.750Z,20.15
2019-05-16T04:13:44.329Z,18.77
2019-05-16T04:14:51.023Z,20.60
2019-05-16T04:15:53.650Z,17.67
2019-05-16T04:17:01.389Z,17.23
2019-05-16T04:18:04.598Z,19.27
2019-05-16T04:19:11.224Z,17.90
2019-05-16T04:20:13.892Z,17.85
2019-05-16T04:21:18.700Z,21.68
2019-05-16T04:22:23.063Z,16.67
2019-05-16T04:23:26.574Z,22.85
2019-05-16T04:24:31.643Z,20.48
2019-05-16T04:25:35.459Z,18.10
2019-05-16T04:26:41.184Z,20.92
2019-05-16T04:27:44.836Z,19.92
2019-05-16T04:28:51.444Z,23.77
2019-05-16T04:29:53.991Z,20.88
2019-05-16T04:30:57.790Z,18.00
2019-05-16T04:32:01.694Z,26.48
2019-05-16T04:33:05.800Z,17.62
2019-05-16T04:34:11.711Z,26.15
2019-05-16T04:35:15.041Z,18.75
2019-05-16T04:36:21.295Z,17.92
2019-05-16T04:37:26.300Z,19.27
2019-05-16T04:38:36.362Z,20.32
2019-05-16T04:39:35.380Z,17.92
2019-05-16T04:40:42.195Z,18.23
2019-05-16T04:41:44.558Z,17.73
2019-05-16T04:42:48.000Z,20.92
2019-05-16T04:43:51.991Z,18.17
2019-05-16T04:44:55.435Z,23.98
2019-05-16T04:46:01.399Z,19.25
2019-05-16T04:47:04.758Z,19.37
2019-05-16T04:48:11.271Z,18.70
2019-05-16T04:49:13.981Z,20.40
2019-05-16T04:50:21.124Z,21.60
2019-05-16T04:51:23.487Z,21.27
2019-05-16T04:52:30.509Z,17.25
2019-05-16T04:53:32.665Z,18.15
2019-05-16T04:54:36.662Z,20.40
2019-05-16T04:55:42.072Z,18.75
2019-05-16T04:56:45.864Z,16.97
2019-05-16T04:57:51.080Z,17.65
2019-05-16T04:58:55.298Z,17.65
2019-05-16T05:00:02.045Z,14.35
2019-05-16T05:01:04.522Z,17.62
2019-05-16T05:02:08.048Z,17.50
2019-05-16T05:03:12.174Z,17.25
2019-05-16T05:04:15.791Z,16.37
2019-05-16T05:05:21.462Z,26.85
2019-05-16T05:06:25.157Z,26.57
2019-05-16T05:07:31.205Z,28.23
2019-05-16T05:08:49.217Z,25.75
2019-05-16T05:09:40.898Z,35.88
2019-05-16T05:10:44.551Z,23.77
2019-05-16T05:11:51.700Z,39.73
2019-05-16T05:12:53.740Z,33.58
2019-05-16T05:13:57.742Z,21.77
2019-05-16T05:15:01.719Z,21.15
2019-05-16T05:16:05.867Z,18.12
2019-05-16T05:17:10.655Z,28.65
2019-05-16T05:18:14.874Z,16.87
2019-05-16T05:19:20.223Z,20.68
2019-05-16T05:20:23.788Z,18.70
2019-05-16T05:21:27.233Z,25.82
2019-05-16T05:22:31.224Z,20.40
2019-05-16T05:23:34.770Z,21.00
2019-05-16T05:24:40.596Z,17.07
2019-05-16T05:25:43.941Z,27.15
2019-05-16T05:26:50.225Z,21.23
2019-05-16T05:27:53.176Z,23.62
2019-05-16T05:28:57.204Z,19.25
2019-05-16T05:30:01.227Z,20.30
2019-05-16T05:31:05.303Z,18.27
2019-05-16T05:32:13.982Z,17.55
2019-05-16T05:33:14.639Z,19.07
2019-05-16T05:34:19.851Z,16.02
2019-05-16T05:35:23.877Z,16.87
2019-05-16T05:36:29.899Z,16.95
2019-05-16T05:37:33.024Z,18.75
2019-05-16T05:38:36.489Z,17.12
2019-05-16T05:39:40.548Z,16.20
2019-05-16T05:40:44.014Z,18.65
2019-05-16T05:41:50.292Z,17.95
2019-05-16T05:42:53.174Z,20.70
2019-05-16T05:43:59.688Z,21.57
2019-05-16T05:45:02.508Z,25.72
2019-05-16T05:46:06.497Z,19.02
2019-05-16T05:47:10.757Z,19.20
2019-05-16T05:48:14.888Z,16.00
2019-05-16T05:49:20.488Z,18.50
2019-05-16T05:50:24.652Z,17.67
2019-05-16T05:51:30.084Z,17.55
2019-05-16T05:52:33.885Z,18.12
2019-05-16T05:53:37.316Z,18.07
2019-05-16T05:54:41.342Z,19.62
2019-05-16T05:55:44.785Z,21.57
2019-05-16T05:56:50.113Z,34.03
2019-05-16T05:57:53.689Z,28.45
2019-05-16T05:58:58.897Z,29.72
2019-05-16T06:00:03.067Z,27.75
2019-05-16T06:01:07.100Z,22.60
2019-05-16T06:02:11.454Z,20.68
2019-05-16T06:03:15.541Z,24.70
2019-05-16T06:04:19.787Z,23.50
2019-05-16T06:05:24.160Z,22.87
2019-05-16T06:06:30.250Z,25.37
2019-05-16T06:07:33.551Z,27.60
2019-05-16T06:08:36.978Z,23.60
2019-05-16T06:09:52.408Z,31.02
2019-05-16T06:10:46.562Z,24.52
2019-05-16T06:11:50.806Z,27.37
2019-05-16T06:12:54.476Z,30.48
2019-05-16T06:14:00.446Z,30.65
2019-05-16T06:15:08.680Z,23.20
2019-05-16T06:16:12.232Z,26.80
2019-05-16T06:17:15.807Z,19.95
2019-05-16T06:18:20.335Z,25.23
2019-05-16T06:19:24.181Z,31.93
2019-05-16T06:20:30.696Z,33.05
2019-05-16T06:21:34.270Z,31.80
2019-05-16T06:22:40.272Z,28.87
2019-05-16T06:23:43.717Z,30.55
2019-05-16T06:24:50.282Z,42.90
2019-05-16T06:25:53.268Z,50.50
2019-05-16T06:26:57.552Z,37.42
2019-05-16T06:28:01.357Z,33.20
2019-05-16T06:29:05.486Z,22.35
2019-05-16T06:30:11.311Z,26.05
2019-05-16T06:31:15.375Z,34.25
2019-05-16T06:32:19.815Z,27.52
2019-05-16T06:33:24.116Z,35.00
2019-05-16T06:34:29.783Z,29.48
2019-05-16T06:35:33.704Z,24.15
2019-05-16T06:36:37.305Z,27.45
2019-05-16T06:37:41.381Z,22.82
2019-05-16T06:38:45.160Z,27.20
2019-05-16T06:39:50.285Z,27.07
2019-05-16T06:40:53.994Z,22.80
2019-05-16T06:42:00.408Z,21.70
2019-05-16T06:43:03.376Z,20.35
2019-05-16T06:44:07.485Z,20.55
2019-05-16T06:45:11.432Z,26.65
2019-05-16T06:46:15.436Z,23.42
2019-05-16T06:47:22.782Z,27.27
2019-05-16T06:48:24.736Z,23.57
2019-05-16T06:49:30.270Z,20.88
2019-05-16T06:50:34.038Z,32.03
2019-05-16T06:51:39.777Z,34.58
2019-05-16T06:52:45.850Z,31.27
2019-05-16T06:53:50.109Z,44.88
2019-05-16T06:54:54.925Z,37.00
2019-05-16T06:56:00.135Z,28.75
